Maggie Valley, NC

9:23 AM EST on December 25, 2014 (GMT -0500)
Maggie Valley | Change Station
CLOSE
Current Station
Personal Weather Station
Location: Maggie Valley, NC
Elevation: 3038 ft
Nearby Weather Stations

Elev 3038 ft 35.52 °N, 83.10 °W | Updated 2 seconds ago

Mostly Cloudy
Mostly Cloudy
36.4 °F
Feels Like 36 °F
N
1.1
Wind Variable Wind from WNW
Gusts 1.1 mph

Today
High -- | Low -- °F
--% Chance of Precip.
Yesterday
High -- | Low -- °F
Precip. -- in
7:39 AM 5:25 PM
Waxing Crescent, 16% visible
Pressure 30.04 in
Visibility 10.0 miles
Clouds Clear
Windchill 36 °F
Dew Point 29 °F
Humidity 74%
Rainfall 0.04 in
Snow Depth Not available.
UV 1 out of 12
Pollen .30 out of 12
Air Quality Not available.
Flu Activity Not available.
METAR KAVL 251354Z 33016G21KT 10SM CLR 04/M03 A3005 RMK AO2 SLP172 T00391028

More Conditions Fewer Conditions

Pressure 30.04 in
Visibility 10.0 miles
Clouds Clear
Windchill 36 °F
Dew Point 29 °F
Humidity 74%
Rainfall 0.04 in
Snow Depth Not available.
UV 1 out of 12
Pollen .30 out of 12
Air Quality Not available.
Flu Activity Not available.
METAR KAVL 251354Z 33016G21KT 10SM CLR 04/M03 A3005 RMK AO2 SLP172 T00391028

More Conditions Fewer Conditions

10-Day Weather Forecast

Almanac

Astronomy

Dec. 25, 2014 Rise Set
Actual Time
Civil Twilight
Nautical Twilight
Astronomical Twilight
Moon
Length of Visible Light
Length of Day
Tomorrow will be .
, % of the Moon is Illuminated

Today's Extremes

State Highs State Lows

Community

WunderPhotos

Upload Photos

1,780,276 photos uploaded!

WunderBlogs® & News

Nearby

Air Quality

  Air Quality AQ Index Pollutant
Not available.

Snow Depth

Station Depth Elevation

Earthquake Activity

City Distance Mag. Time & Date
Minimum magnitude displayed is 2.5.

Coastal Water Temperatures

Place Temperature

Nearby Weather Stations